Terminal Aerodrome Forecast
Issued by NWS Nashville, TN

Home | Current Version | Previous Version | Text Only | Print | Product List | Glossary On
Versions: 1 2 3 4 5 6 7 8 9 10 11 12 13 14
000
FTUS44 KOHX 232340
TAFBNA
TAF
KBNA 232340Z 2400/2424 30006KT P6SM BKN050 BKN120 BKN250
     FM240800 22002KT P6SM VCSH OVC050
     FM241000 24003KT 4SM -SHRA BR OVC015
     FM241800 28008KT 5SM -SHRA OVC015
     FM242100 28009KT 6SM -SHRA OVC050=

USA.gov is the U.S. government's official web portal to all federal, state and local government web resources and services.